Terminal Aerodrome Forecast
Issued by NWS Greer, SC

Current Version | Previous Version | Text Only | Print | Product List | Glossary On
Versions: 1 2 3 4 5 6 7 8 9 10 11 12 13 14 15 16 17 18 19 20 21 22 23 24 25 26 27 28 29 30 31 32 33 34 35 36 37 38 39 40 41 42 43 44 45 46 47 48 49 50
566
FTUS42 KGSP 191736
TAFCLT
TAF
KCLT 191736Z 1918/2018 10003KT P6SM SCT170 BKN250
     FM192100 17003KT P6SM SCT050 BKN090
     FM200800 14004KT 5SM -SHRA BR SCT012 OVC040
      TEMPO 2010/2014 3SM SHRA BR SCT008 OVC012
     FM201400 15004KT 3SM BR VCSH OVC008
     FM201600 18006KT P6SM OVC012=

USA.gov is the U.S. government's official web portal to all federal, state and local government web resources and services.